Time,TemperatureF,DewpointF,PressureIn,WindDirection,WindDirectionDegrees,WindSpeedMPH,WindSpeedGustMPH,Humidity,HourlyPrecipIn,Conditions,Clouds,dailyrainin,SoftwareType,DateUTC
2013-06-15 00:00:00,54.8,52.8,30.10,WSW,258,0.0,0.0,93,0.00,,,0.00,Wunderground v.1.15,2013-06-15 04:00:00,
2013-06-15 00:05:00,54.8,52.8,30.10,WSW,258,0.0,0.0,93,0.00,,,0.00,Wunderground v.1.15,2013-06-15 04:05:00,
2013-06-15 00:10:00,54.7,52.7,30.10,WSW,258,0.0,0.0,93,0.00,,,0.00,Wunderground v.1.15,2013-06-15 04:10:00,
2013-06-15 00:15:00,54.6,52.6,30.10,WSW,258,0.0,0.0,93,0.00,,,0.00,Wunderground v.1.15,2013-06-15 04:15:00,
2013-06-15 00:25:00,54.4,52.4,30.10,WSW,258,0.0,0.0,93,0.00,,,0.00,Wunderground v.1.15,2013-06-15 04:25:00,
2013-06-15 00:30:00,54.3,52.3,30.10,WSW,258,0.0,0.0,93,0.00,,,0.00,Wunderground v.1.15,2013-06-15 04:30:00,
2013-06-15 00:40:00,54.1,52.1,30.11,WSW,258,0.0,0.0,93,0.00,,,0.00,Wunderground v.1.15,2013-06-15 04:40:00,
2013-06-15 00:45:00,53.9,51.9,30.10,WSW,258,0.0,0.0,93,0.00,,,0.00,Wunderground v.1.15,2013-06-15 04:45:00,
2013-06-15 00:50:00,53.8,51.8,30.11,WSW,258,0.0,0.0,93,0.00,,,0.00,Wunderground v.1.15,2013-06-15 04:50:00,
2013-06-15 00:55:00,53.7,51.7,30.11,WSW,258,0.0,0.0,93,0.00,,,0.00,Wunderground v.1.15,2013-06-15 04:55:00,
2013-06-15 01:00:00,53.6,51.6,30.11,WSW,258,0.0,0.0,93,0.00,,,0.00,Wunderground v.1.15,2013-06-15 05:00:00,
2013-06-15 01:10:00,53.5,51.8,30.11,WSW,258,0.0,0.0,94,0.00,,,0.00,Wunderground v.1.15,2013-06-15 05:10:00,
2013-06-15 01:15:00,53.3,51.6,30.11,WSW,258,0.0,0.0,94,0.00,,,0.00,Wunderground v.1.15,2013-06-15 05:15:00,
2013-06-15 01:25:00,53.2,51.2,30.11,WSW,258,0.0,0.0,93,0.00,,,0.00,Wunderground v.1.15,2013-06-15 05:25:00,
2013-06-15 01:30:00,53.1,51.4,30.11,WSW,258,0.0,0.0,94,0.00,,,0.00,Wunderground v.1.15,2013-06-15 05:30:00,
2013-06-15 01:35:00,53.0,51.3,30.11,WSW,258,0.0,0.0,94,0.00,,,0.00,Wunderground v.1.15,2013-06-15 05:35:00,
2013-06-15 01:40:00,52.9,51.2,30.10,WSW,258,0.0,0.0,94,0.00,,,0.00,Wunderground v.1.15,2013-06-15 05:40:00,
2013-06-15 01:50:00,52.8,51.1,30.10,WSW,258,0.0,0.0,94,0.00,,,0.00,Wunderground v.1.15,2013-06-15 05:50:00,
2013-06-15 01:55:00,52.7,51.0,30.10,WSW,258,0.0,0.0,94,0.00,,,0.00,Wunderground v.1.15,2013-06-15 05:55:00,
2013-06-15 02:00:00,52.6,50.9,30.11,WSW,258,0.0,0.0,94,0.00,,,0.00,Wunderground v.1.15,2013-06-15 06:00:00,
2013-06-15 02:10:00,52.5,50.8,30.11,WSW,258,0.0,0.0,94,0.00,,,0.00,Wunderground v.1.15,2013-06-15 06:10:00,
2013-06-15 02:15:00,52.4,50.7,30.11,WSW,258,0.0,0.0,94,0.00,,,0.00,Wunderground v.1.15,2013-06-15 06:15:00,
2013-06-15 02:20:00,52.3,50.6,30.11,WSW,258,0.0,0.0,94,0.00,,,0.00,Wunderground v.1.15,2013-06-15 06:20:00,
2013-06-15 02:25:00,52.2,50.5,30.11,WSW,258,0.0,0.0,94,0.00,,,0.00,Wunderground v.1.15,2013-06-15 06:25:00,
2013-06-15 02:30:00,52.1,50.4,30.11,WSW,258,0.0,0.0,94,0.00,,,0.00,Wunderground v.1.15,2013-06-15 06:30:00,
2013-06-15 02:40:00,52.0,50.3,30.11,WSW,258,0.0,0.0,94,0.00,,,0.00,Wunderground v.1.15,2013-06-15 06:40:00,
2013-06-15 02:45:00,52.0,50.3,30.11,WSW,258,0.0,0.0,94,0.00,,,0.00,Wunderground v.1.15,2013-06-15 06:45:00,
2013-06-15 02:55:00,51.8,50.1,30.10,WSW,258,0.0,0.0,94,0.00,,,0.00,Wunderground v.1.15,2013-06-15 06:55:00,
2013-06-15 03:00:00,51.8,50.1,30.10,WSW,258,0.0,0.0,94,0.00,,,0.00,Wunderground v.1.15,2013-06-15 07:00:00,
2013-06-15 03:05:00,51.8,50.1,30.10,WSW,258,0.0,0.0,94,0.00,,,0.00,Wunderground v.1.15,2013-06-15 07:05:00,
2013-06-15 03:10:00,52.0,50.3,30.10,WSW,258,0.0,0.0,94,0.00,,,0.00,Wunderground v.1.15,2013-06-15 07:10:00,
2013-06-15 03:15:00,52.2,50.5,30.09,WSW,258,0.0,0.0,94,0.00,,,0.00,Wunderground v.1.15,2013-06-15 07:15:00,
2013-06-15 03:25:00,52.7,51.0,30.10,WSW,258,0.0,0.0,94,0.00,,,0.00,Wunderground v.1.15,2013-06-15 07:25:00,
2013-06-15 03:30:00,52.9,51.2,30.10,WSW,258,0.0,0.0,94,0.00,,,0.00,Wunderground v.1.15,2013-06-15 07:30:00,
2013-06-15 03:40:00,53.0,51.3,30.10,WSW,258,0.0,0.0,94,0.00,,,0.00,Wunderground v.1.15,2013-06-15 07:40:00,
2013-06-15 03:45:00,52.8,51.1,30.09,WSW,258,0.0,0.0,94,0.00,,,0.00,Wunderground v.1.15,2013-06-15 07:45:00,
2013-06-15 03:50:00,52.7,51.0,30.09,WSW,258,0.0,0.0,94,0.00,,,0.00,Wunderground v.1.15,2013-06-15 07:50:00,
2013-06-15 03:55:00,52.6,50.9,30.09,WSW,258,0.0,0.0,94,0.00,,,0.00,Wunderground v.1.15,2013-06-15 07:55:00,
2013-06-15 04:00:00,52.4,50.7,30.10,WSW,258,0.0,0.0,94,0.00,,,0.00,Wunderground v.1.15,2013-06-15 08:00:00,
2013-06-15 04:10:00,52.2,50.5,30.10,WSW,258,0.0,0.0,94,0.00,,,0.00,Wunderground v.1.15,2013-06-15 08:10:00,
2013-06-15 04:15:00,52.1,50.4,30.10,WSW,258,0.0,0.0,94,0.00,,,0.00,Wunderground v.1.15,2013-06-15 08:15:00,
2013-06-15 04:25:00,52.0,50.3,30.10,WSW,258,0.0,0.0,94,0.00,,,0.00,Wunderground v.1.15,2013-06-15 08:25:00,
2013-06-15 04:35:00,51.8,50.1,30.11,WSW,258,0.0,0.0,94,0.00,,,0.00,Wunderground v.1.15,2013-06-15 08:35:00,
2013-06-15 04:40:00,51.7,50.0,30.12,WSW,258,0.0,0.0,94,0.00,,,0.01,Wunderground v.1.15,2013-06-15 08:40:00,
2013-06-15 04:50:00,51.6,49.9,30.12,WSW,258,0.0,0.0,94,0.00,,,0.01,Wunderground v.1.15,2013-06-15 08:50:00,
2013-06-15 04:55:00,51.5,49.8,30.12,WSW,258,0.0,0.0,94,0.00,,,0.01,Wunderground v.1.15,2013-06-15 08:55:00,
2013-06-15 05:00:00,51.3,49.6,30.13,WSW,258,0.0,0.0,94,0.00,,,0.01,Wunderground v.1.15,2013-06-15 09:00:00,
2013-06-15 05:10:00,51.1,49.4,30.14,WSW,258,0.0,0.0,94,0.00,,,0.01,Wunderground v.1.15,2013-06-15 09:10:00,
2013-06-15 05:15:00,50.9,49.2,30.13,WSW,258,0.0,0.0,94,0.00,,,0.01,Wunderground v.1.15,2013-06-15 09:15:00,
2013-06-15 05:20:00,50.8,49.1,30.13,WSW,258,0.0,0.0,94,0.00,,,0.01,Wunderground v.1.15,2013-06-15 09:20:00,
2013-06-15 05:25:00,50.8,49.1,30.13,WSW,258,0.0,0.0,94,0.00,,,0.01,Wunderground v.1.15,2013-06-15 09:25:00,
2013-06-15 05:30:00,50.9,49.2,30.13,WSW,258,0.0,0.0,94,0.00,,,0.01,Wunderground v.1.15,2013-06-15 09:30:00,
2013-06-15 05:40:00,51.2,49.8,30.14,WSW,258,0.0,0.0,95,0.00,,,0.01,Wunderground v.1.15,2013-06-15 09:40:00,
2013-06-15 05:45:00,51.3,49.9,30.14,WSW,258,0.0,0.0,95,0.00,,,0.01,Wunderground v.1.15,2013-06-15 09:45:00,
2013-06-15 05:55:00,51.4,50.0,30.14,WSW,258,0.0,0.0,95,0.00,,,0.01,Wunderground v.1.15,2013-06-15 09:55:00,
2013-06-15 06:00:00,51.4,50.0,30.14,WSW,258,0.0,0.0,95,0.00,,,0.01,Wunderground v.1.15,2013-06-15 10:00:00,
2013-06-15 06:05:00,51.5,50.1,30.15,WSW,258,0.0,0.0,95,0.00,,,0.01,Wunderground v.1.15,2013-06-15 10:05:00,
2013-06-15 06:10:00,51.5,50.1,30.15,WSW,258,0.0,0.0,95,0.00,,,0.01,Wunderground v.1.15,2013-06-15 10:10:00,
2013-06-15 06:15:00,51.6,50.2,30.15,WSW,258,0.0,0.0,95,0.00,,,0.01,Wunderground v.1.15,2013-06-15 10:15:00,
2013-06-15 06:25:00,51.6,50.2,30.14,WSW,258,0.0,0.0,95,0.00,,,0.01,Wunderground v.1.15,2013-06-15 10:25:00,
2013-06-15 06:30:00,51.6,50.2,30.14,WSW,258,0.0,0.0,95,0.00,,,0.01,Wunderground v.1.15,2013-06-15 10:30:00,
2013-06-15 06:40:00,51.9,50.5,30.14,WSW,258,0.0,0.0,95,0.00,,,0.01,Wunderground v.1.15,2013-06-15 10:40:00,
2013-06-15 06:45:00,52.0,50.6,30.15,WSW,258,0.0,0.0,95,0.00,,,0.01,Wunderground v.1.15,2013-06-15 10:45:00,
2013-06-15 06:50:00,52.3,50.9,30.15,WSW,258,0.0,0.0,95,0.00,,,0.01,Wunderground v.1.15,2013-06-15 10:50:00,
2013-06-15 06:55:00,52.4,51.0,30.15,WSW,258,0.0,0.0,95,0.00,,,0.01,Wunderground v.1.15,2013-06-15 10:55:00,
2013-06-15 07:00:00,52.5,51.1,30.15,WSW,258,0.0,0.0,95,0.00,,,0.01,Wunderground v.1.15,2013-06-15 11:00:00,
2013-06-15 07:10:00,52.7,51.3,30.15,WSW,258,0.0,0.0,95,0.00,,,0.01,Wunderground v.1.15,2013-06-15 11:10:00,
2013-06-15 07:15:00,52.6,51.2,30.16,WSW,258,0.0,0.0,95,0.00,,,0.01,Wunderground v.1.15,2013-06-15 11:15:00,
2013-06-15 07:25:00,52.7,51.3,30.16,WSW,258,0.0,0.0,95,0.00,,,0.01,Wunderground v.1.15,2013-06-15 11:25:00,
2013-06-15 07:30:00,52.7,51.3,30.16,WSW,258,0.0,0.0,95,0.00,,,0.01,Wunderground v.1.15,2013-06-15 11:30:00,
2013-06-15 07:35:00,52.8,51.4,30.16,WSW,258,0.0,0.0,95,0.00,,,0.01,Wunderground v.1.15,2013-06-15 11:35:00,
2013-06-15 07:40:00,52.8,51.4,30.16,WSW,258,0.0,0.0,95,0.00,,,0.01,Wunderground v.1.15,2013-06-15 11:40:00,
2013-06-15 07:45:00,52.9,51.5,30.16,WSW,258,0.0,0.0,95,0.00,,,0.01,Wunderground v.1.15,2013-06-15 11:45:00,
2013-06-15 07:55:00,53.4,52.0,30.16,WSW,258,0.0,0.0,95,0.00,,,0.01,Wunderground v.1.15,2013-06-15 11:55:00,
2013-06-15 08:00:00,53.8,52.4,30.16,WSW,258,0.0,0.0,95,0.00,,,0.01,Wunderground v.1.15,2013-06-15 12:00:00,
2013-06-15 08:10:00,54.4,53.0,30.17,WSW,258,0.0,0.0,95,0.00,,,0.01,Wunderground v.1.15,2013-06-15 12:10:00,
2013-06-15 08:20:00,54.4,53.0,30.17,WSW,258,0.0,0.0,95,0.00,,,0.01,Wunderground v.1.15,2013-06-15 12:20:00,
2013-06-15 08:25:00,54.6,53.2,30.17,WSW,258,0.0,0.0,95,0.00,,,0.01,Wunderground v.1.15,2013-06-15 12:25:00,
2013-06-15 08:30:00,54.8,53.4,30.17,WSW,258,0.0,0.0,95,0.00,,,0.01,Wunderground v.1.15,2013-06-15 12:30:00,
2013-06-15 08:40:00,55.2,53.8,30.18,WSW,258,0.0,0.0,95,0.00,,,0.01,Wunderground v.1.15,2013-06-15 12:40:00,
2013-06-15 08:45:00,55.3,53.9,30.18,WSW,258,0.0,0.0,95,0.00,,,0.01,Wunderground v.1.15,2013-06-15 12:45:00,
2013-06-15 08:50:00,55.4,54.0,30.18,WSW,258,0.0,0.0,95,0.00,,,0.01,Wunderground v.1.15,2013-06-15 12:50:00,
2013-06-15 08:55:00,55.6,54.2,30.18,WSW,258,0.0,0.0,95,0.00,,,0.01,Wunderground v.1.15,2013-06-15 12:55:00,
2013-06-15 09:00:00,55.9,54.8,30.18,WSW,258,0.0,0.0,96,0.00,,,0.01,Wunderground v.1.15,2013-06-15 13:00:00,
2013-06-15 09:10:00,56.5,55.4,30.19,WSW,258,0.0,1.0,96,0.00,,,0.01,Wunderground v.1.15,2013-06-15 13:10:00,
2013-06-15 09:15:00,56.9,55.5,30.19,WSW,258,0.0,1.0,95,0.00,,,0.01,Wunderground v.1.15,2013-06-15 13:15:00,
2013-06-15 09:25:00,57.6,56.2,30.20,WSW,258,0.0,0.0,95,0.00,,,0.01,Wunderground v.1.15,2013-06-15 13:25:00,
2013-06-15 09:30:00,58.1,56.7,30.19,WSW,258,0.0,0.0,95,0.00,,,0.01,Wunderground v.1.15,2013-06-15 13:30:00,
2013-06-15 09:40:00,58.8,57.4,30.19,NE,47,0.0,0.0,95,0.00,,,0.01,Wunderground v.1.15,2013-06-15 13:40:00,
2013-06-15 09:45:00,59.4,58.0,30.19,NE,45,0.0,0.0,95,0.00,,,0.01,Wunderground v.1.15,2013-06-15 13:45:00,
2013-06-15 09:50:00,60.0,58.6,30.19,NE,45,0.0,0.0,95,0.00,,,0.01,Wunderground v.1.15,2013-06-15 13:50:00,
2013-06-15 09:55:00,60.5,58.8,30.18,ENE,63,0.0,0.0,94,0.00,,,0.01,Wunderground v.1.15,2013-06-15 13:55:00,
2013-06-15 10:00:00,61.1,59.1,30.18,ENE,63,1.0,1.0,93,0.00,,,0.01,Wunderground v.1.15,2013-06-15 14:00:00,
2013-06-15 10:10:00,62.8,59.8,30.17,ENE,63,0.0,1.0,90,0.00,,,0.01,Wunderground v.1.15,2013-06-15 14:10:00,
2013-06-15 10:15:00,63.5,59.9,30.17,ENE,63,0.0,1.0,88,0.00,,,0.01,Wunderground v.1.15,2013-06-15 14:15:00,
2013-06-15 10:25:00,65.2,61.2,30.17,ESE,115,0.0,0.0,87,0.00,,,0.01,Wunderground v.1.15,2013-06-15 14:25:00,
2013-06-15 10:30:00,66.0,61.0,30.16,ESE,115,0.0,0.0,84,0.00,,,0.01,Wunderground v.1.15,2013-06-15 14:30:00,
2013-06-15 10:35:00,66.7,61.0,30.17,ESE,115,0.0,0.0,82,0.00,,,0.01,Wunderground v.1.15,2013-06-15 14:35:00,
2013-06-15 10:40:00,67.2,60.8,30.16,ESE,115,0.0,0.0,80,0.00,,,0.01,Wunderground v.1.15,2013-06-15 14:40:00,
2013-06-15 10:45:00,67.7,61.7,30.16,ESE,115,0.0,0.0,81,0.00,,,0.01,Wunderground v.1.15,2013-06-15 14:45:00,
2013-06-15 10:55:00,68.6,61.8,30.16,ESE,115,0.0,0.0,79,0.00,,,0.01,Wunderground v.1.15,2013-06-15 14:55:00,
2013-06-15 11:00:00,69.0,62.2,30.16,ESE,115,0.0,1.0,79,0.00,,,0.01,Wunderground v.1.15,2013-06-15 15:00:00,
2013-06-15 11:10:00,69.6,62.1,30.16,ESE,115,0.0,0.0,77,0.00,,,0.01,Wunderground v.1.15,2013-06-15 15:10:00,
2013-06-15 11:15:00,70.0,63.2,30.15,ESE,115,0.0,0.0,79,0.00,,,0.01,Wunderground v.1.15,2013-06-15 15:15:00,
2013-06-15 11:20:00,70.3,62.0,30.15,SSE,149,1.0,1.0,75,0.00,,,0.01,Wunderground v.1.15,2013-06-15 15:20:00,
2013-06-15 11:25:00,70.9,62.6,30.15,SE,134,0.0,1.0,75,0.00,,,0.01,Wunderground v.1.15,2013-06-15 15:25:00,
2013-06-15 11:30:00,71.5,63.5,30.14,SSE,150,0.0,1.0,76,0.00,,,0.01,Wunderground v.1.15,2013-06-15 15:30:00,
2013-06-15 11:40:00,72.3,63.9,30.14,ESE,118,1.0,1.0,75,0.00,,,0.01,Wunderground v.1.15,2013-06-15 15:40:00,
2013-06-15 11:45:00,72.6,62.3,30.14,ESE,102,1.0,2.0,70,0.00,,,0.01,Wunderground v.1.15,2013-06-15 15:45:00,
2013-06-15 11:55:00,73.3,63.7,30.14,SSW,211,1.0,2.0,72,0.00,,,0.01,Wunderground v.1.15,2013-06-15 15:55:00,
2013-06-15 12:00:00,73.4,58.7,30.14,West,269,2.0,9.0,60,0.00,,,0.01,Wunderground v.1.15,2013-06-15 16:00:00,
2013-06-15 12:05:00,73.5,60.6,30.15,WSW,255,3.0,9.0,64,0.00,,,0.01,Wunderground v.1.15,2013-06-15 16:05:00,
2013-06-15 12:10:00,73.8,56.1,30.14,West,278,4.0,4.0,54,0.00,,,0.01,Wunderground v.1.15,2013-06-15 16:10:00,
2013-06-15 12:15:00,74.0,61.9,30.14,NW,305,3.0,4.0,66,0.00,,,0.01,Wunderground v.1.15,2013-06-15 16:15:00,
2013-06-15 12:25:00,74.3,59.5,30.14,WNW,300,3.0,5.0,60,0.00,,,0.01,Wunderground v.1.15,2013-06-15 16:25:00,
2013-06-15 12:30:00,74.6,59.3,30.15,West,277,3.0,3.0,59,0.00,,,0.01,Wunderground v.1.15,2013-06-15 16:30:00,
2013-06-15 12:35:00,74.7,59.4,30.14,West,269,3.0,4.0,59,0.00,,,0.01,Wunderground v.1.15,2013-06-15 16:35:00,
2013-06-15 12:40:00,74.6,59.3,30.14,West,263,2.0,6.0,59,0.00,,,0.01,Wunderground v.1.15,2013-06-15 16:40:00,
2013-06-15 12:45:00,74.8,58.1,30.14,WNW,295,3.0,6.0,56,0.00,,,0.01,Wunderground v.1.15,2013-06-15 16:45:00,
2013-06-15 12:55:00,74.5,58.8,30.14,West,281,4.0,6.0,58,0.00,,,0.01,Wunderground v.1.15,2013-06-15 16:55:00,
2013-06-15 13:05:00,74.4,59.6,30.14,NW,311,3.0,4.0,60,0.00,,,0.01,Wunderground v.1.15,2013-06-15 17:05:00,
2013-06-15 13:10:00,75.5,62.5,30.14,NW,306,1.0,1.0,64,0.00,,,0.01,Wunderground v.1.15,2013-06-15 17:10:00,
2013-06-15 13:20:00,75.2,59.9,30.14,West,281,2.0,7.0,59,0.00,,,0.01,Wunderground v.1.15,2013-06-15 17:20:00,
2013-06-15 13:25:00,75.0,59.2,30.14,WNW,303,4.0,7.0,58,0.00,,,0.01,Wunderground v.1.15,2013-06-15 17:25:00,
2013-06-15 13:30:00,74.7,59.4,30.14,WNW,297,4.0,4.0,59,0.00,,,0.01,Wunderground v.1.15,2013-06-15 17:30:00,
2013-06-15 13:40:00,74.8,60.9,30.13,WNW,290,3.0,3.0,62,0.00,,,0.01,Wunderground v.1.15,2013-06-15 17:40:00,
2013-06-15 13:50:00,75.2,61.3,30.13,SW,229,2.0,2.0,62,0.00,,,0.01,Wunderground v.1.15,2013-06-15 17:50:00,
2013-06-15 13:55:00,75.0,60.6,30.13,NW,310,2.0,4.0,61,0.00,,,0.01,Wunderground v.1.15,2013-06-15 17:55:00,
2013-06-15 14:00:00,75.3,60.0,30.12,West,264,3.0,4.0,59,0.00,,,0.01,Wunderground v.1.15,2013-06-15 18:00:00,
2013-06-15 14:10:00,76.2,59.4,30.12,NW,319,1.0,1.0,56,0.00,,,0.01,Wunderground v.1.15,2013-06-15 18:10:00,
2013-06-15 14:20:00,77.5,61.1,30.12,NNW,329,1.0,1.0,57,0.00,,,0.01,Wunderground v.1.15,2013-06-15 18:20:00,
2013-06-15 14:25:00,77.1,61.2,30.12,West,277,2.0,5.0,58,0.00,,,0.01,Wunderground v.1.15,2013-06-15 18:25:00,
2013-06-15 14:30:00,76.8,59.9,30.12,NW,309,2.0,4.0,56,0.00,,,0.01,Wunderground v.1.15,2013-06-15 18:30:00,
2013-06-15 14:35:00,76.5,59.6,30.11,WNW,302,2.0,4.0,56,0.00,,,0.01,Wunderground v.1.15,2013-06-15 18:35:00,
2013-06-15 14:40:00,76.1,58.8,30.12,West,264,3.0,5.0,55,0.00,,,0.01,Wunderground v.1.15,2013-06-15 18:40:00,
2013-06-15 14:45:00,76.1,59.3,30.11,WNW,302,3.0,5.0,56,0.00,,,0.01,Wunderground v.1.15,2013-06-15 18:45:00,
2013-06-15 14:55:00,76.4,59.0,30.11,WNW,288,4.0,4.0,55,0.00,,,0.01,Wunderground v.1.15,2013-06-15 18:55:00,
2013-06-15 15:00:00,77.2,60.8,30.11,WNW,288,3.0,4.0,57,0.00,,,0.01,Wunderground v.1.15,2013-06-15 19:00:00,
2013-06-15 15:10:00,76.9,61.0,30.11,WNW,286,4.0,4.0,58,0.00,,,0.01,Wunderground v.1.15,2013-06-15 19:10:00,
2013-06-15 15:15:00,76.9,62.9,30.11,West,275,3.0,4.0,62,0.00,,,0.01,Wunderground v.1.15,2013-06-15 19:15:00,
2013-06-15 15:20:00,77.3,60.4,30.10,WNW,288,1.0,1.0,56,0.00,,,0.01,Wunderground v.1.15,2013-06-15 19:20:00,
2013-06-15 15:25:00,77.8,60.3,30.10,NE,37,0.0,1.0,55,0.00,,,0.01,Wunderground v.1.15,2013-06-15 19:25:00,
2013-06-15 15:30:00,78.2,62.2,30.10,WSW,248,1.0,1.0,58,0.00,,,0.01,Wunderground v.1.15,2013-06-15 19:30:00,
2013-06-15 15:40:00,77.9,61.9,30.10,SSW,210,1.0,1.0,58,0.00,,,0.01,Wunderground v.1.15,2013-06-15 19:40:00,
2013-06-15 15:45:00,78.2,59.1,30.10,NW,320,1.0,2.0,52,0.00,,,0.01,Wunderground v.1.15,2013-06-15 19:45:00,
2013-06-15 15:55:00,78.2,61.7,30.10,WSW,246,1.0,1.0,57,0.00,,,0.01,Wunderground v.1.15,2013-06-15 19:55:00,
2013-06-15 16:00:00,77.3,63.7,30.10,NW,325,1.0,2.0,63,0.00,,,0.01,Wunderground v.1.15,2013-06-15 20:00:00,
2013-06-15 16:05:00,77.2,64.5,30.10,NW,325,1.0,2.0,65,0.00,,,0.01,Wunderground v.1.15,2013-06-15 20:05:00,
2013-06-15 16:10:00,77.8,63.3,30.10,WSW,254,0.0,1.0,61,0.00,,,0.01,Wunderground v.1.15,2013-06-15 20:10:00,
2013-06-15 16:15:00,78.9,60.8,30.09,WNW,288,1.0,1.0,54,0.00,,,0.01,Wunderground v.1.15,2013-06-15 20:15:00,
2013-06-15 16:25:00,80.3,64.2,30.09,West,277,0.0,1.0,58,0.00,,,0.01,Wunderground v.1.15,2013-06-15 20:25:00,
2013-06-15 16:30:00,80.4,62.2,30.09,West,277,1.0,3.0,54,0.00,,,0.01,Wunderground v.1.15,2013-06-15 20:30:00,
2013-06-15 16:40:00,80.6,62.9,30.09,SSW,213,1.0,1.0,55,0.00,,,0.01,Wunderground v.1.15,2013-06-15 20:40:00,
2013-06-15 16:45:00,80.6,60.2,30.09,SW,221,0.0,1.0,50,0.00,,,0.01,Wunderground v.1.15,2013-06-15 20:45:00,
2013-06-15 16:50:00,80.4,64.3,30.08,WSW,250,1.0,4.0,58,0.00,,,0.01,Wunderground v.1.15,2013-06-15 20:50:00,
2013-06-15 16:55:00,80.0,60.8,30.08,NNW,343,2.0,4.0,52,0.00,,,0.01,Wunderground v.1.15,2013-06-15 20:55:00,
2013-06-15 17:00:00,80.1,61.4,30.08,NNW,329,2.0,2.0,53,0.00,,,0.01,Wunderground v.1.15,2013-06-15 21:00:00,
2013-06-15 17:10:00,79.3,63.2,30.08,WNW,289,2.0,2.0,58,0.00,,,0.01,Wunderground v.1.15,2013-06-15 21:10:00,
2013-06-15 17:15:00,79.7,64.1,30.08,WNW,289,1.0,2.0,59,0.00,,,0.01,Wunderground v.1.15,2013-06-15 21:15:00,
2013-06-15 17:25:00,80.0,64.9,30.07,WNW,297,0.0,1.0,60,0.00,,,0.01,Wunderground v.1.15,2013-06-15 21:25:00,
2013-06-15 17:30:00,80.1,62.5,30.07,WNW,297,1.0,1.0,55,0.00,,,0.01,Wunderground v.1.15,2013-06-15 21:30:00,
2013-06-15 17:35:00,80.4,62.2,30.07,WNW,297,1.0,1.0,54,0.00,,,0.01,Wunderground v.1.15,2013-06-15 21:35:00,
2013-06-15 17:40:00,79.9,65.7,30.07,WNW,296,0.0,0.0,62,0.00,,,0.01,Wunderground v.1.15,2013-06-15 21:40:00,
2013-06-15 17:45:00,79.1,63.1,30.07,West,275,1.0,2.0,58,0.00,,,0.01,Wunderground v.1.15,2013-06-15 21:45:00,
2013-06-15 17:55:00,79.4,63.3,30.07,WNW,297,1.0,1.0,58,0.00,,,0.01,Wunderground v.1.15,2013-06-15 21:55:00,
2013-06-15 18:00:00,79.7,64.6,30.07,WNW,286,1.0,1.0,60,0.00,,,0.01,Wunderground v.1.15,2013-06-15 22:00:00,
2013-06-15 18:10:00,80.1,61.4,30.07,West,264,1.0,1.0,53,0.00,,,0.01,Wunderground v.1.15,2013-06-15 22:10:00,
2013-06-15 18:15:00,79.6,62.5,30.07,WNW,296,1.0,1.0,56,0.00,,,0.01,Wunderground v.1.15,2013-06-15 22:15:00,
2013-06-15 18:25:00,79.5,64.9,30.07,WNW,292,1.0,1.0,61,0.00,,,0.01,Wunderground v.1.15,2013-06-15 22:25:00,
2013-06-15 18:30:00,79.4,66.2,30.07,WNW,292,0.0,0.0,64,0.00,,,0.01,Wunderground v.1.15,2013-06-15 22:30:00,
2013-06-15 18:40:00,79.2,65.1,30.07,WNW,294,1.0,1.0,62,0.00,,,0.01,Wunderground v.1.15,2013-06-15 22:40:00,
2013-06-15 18:45:00,79.1,64.5,30.07,WNW,302,1.0,3.0,61,0.00,,,0.01,Wunderground v.1.15,2013-06-15 22:45:00,
2013-06-15 18:55:00,78.3,65.6,30.07,WSW,253,1.0,1.0,65,0.00,,,0.01,Wunderground v.1.15,2013-06-15 22:55:00,
2013-06-15 19:00:00,77.5,64.8,30.07,WSW,253,0.0,0.0,65,0.00,,,0.01,Wunderground v.1.15,2013-06-15 23:00:00,
2013-06-15 19:10:00,76.7,64.9,30.07,SW,236,0.0,0.0,67,0.00,,,0.01,Wunderground v.1.15,2013-06-15 23:10:00,
2013-06-15 19:15:00,75.8,65.3,30.07,SW,236,0.0,0.0,70,0.00,,,0.01,Wunderground v.1.15,2013-06-15 23:15:00,
2013-06-15 19:25:00,74.6,64.6,30.07,SW,236,0.0,0.0,71,0.00,,,0.01,Wunderground v.1.15,2013-06-15 23:25:00,
2013-06-15 19:30:00,74.1,64.5,30.07,SW,236,0.0,0.0,72,0.00,,,0.01,Wunderground v.1.15,2013-06-15 23:30:00,
2013-06-15 19:40:00,73.2,65.2,30.07,SW,236,0.0,0.0,76,0.00,,,0.01,Wunderground v.1.15,2013-06-15 23:40:00,
2013-06-15 19:45:00,73.0,65.7,30.07,SW,236,0.0,0.0,78,0.00,,,0.01,Wunderground v.1.15,2013-06-15 23:45:00,
2013-06-15 19:55:00,72.2,65.7,30.07,SW,236,0.0,0.0,80,0.00,,,0.01,Wunderground v.1.15,2013-06-15 23:55:00,
2013-06-15 20:00:00,71.5,65.0,30.07,SW,236,0.0,0.0,80,0.00,,,0.01,Wunderground v.1.15,2013-06-16 00:00:00,
2013-06-15 20:10:00,70.1,64.0,30.07,SW,236,0.0,0.0,81,0.00,,,0.01,Wunderground v.1.15,2013-06-16 00:10:00,
2013-06-15 20:15:00,69.5,64.1,30.07,SW,236,0.0,0.0,83,0.00,,,0.01,Wunderground v.1.15,2013-06-16 00:15:00,
2013-06-15 20:25:00,68.5,63.5,30.07,SW,236,0.0,0.0,84,0.00,,,0.01,Wunderground v.1.15,2013-06-16 00:25:00,
2013-06-15 20:30:00,68.2,63.2,30.06,SW,236,0.0,0.0,84,0.00,,,0.01,Wunderground v.1.15,2013-06-16 00:30:00,
2013-06-15 20:35:00,67.8,63.1,30.06,SW,236,0.0,0.0,85,0.00,,,0.01,Wunderground v.1.15,2013-06-16 00:35:00,
2013-06-15 20:40:00,67.1,62.4,30.06,SW,236,0.0,0.0,85,0.00,,,0.01,Wunderground v.1.15,2013-06-16 00:40:00,
2013-06-15 20:45:00,66.6,62.3,30.07,SW,236,0.0,0.0,86,0.00,,,0.01,Wunderground v.1.15,2013-06-16 00:45:00,
2013-06-15 20:55:00,65.7,61.7,30.07,SW,236,0.0,0.0,87,0.00,,,0.01,Wunderground v.1.15,2013-06-16 00:55:00,
2013-06-15 21:00:00,65.3,61.3,30.07,SW,236,0.0,0.0,87,0.00,,,0.01,Wunderground v.1.15,2013-06-16 01:00:00,
2013-06-15 21:10:00,64.4,60.8,30.07,SW,236,0.0,0.0,88,0.00,,,0.01,Wunderground v.1.15,2013-06-16 01:10:00,
2013-06-15 21:15:00,64.0,60.4,30.07,SW,236,0.0,0.0,88,0.00,,,0.01,Wunderground v.1.15,2013-06-16 01:15:00,
2013-06-15 21:20:00,63.7,60.1,30.07,SW,236,0.0,0.0,88,0.00,,,0.01,Wunderground v.1.15,2013-06-16 01:20:00,
2013-06-15 21:25:00,63.4,60.1,30.07,SW,236,0.0,0.0,89,0.00,,,0.01,Wunderground v.1.15,2013-06-16 01:25:00,
2013-06-15 21:30:00,63.1,59.8,30.07,SW,236,0.0,0.0,89,0.00,,,0.01,Wunderground v.1.15,2013-06-16 01:30:00,
2013-06-15 21:40:00,62.5,59.5,30.08,SW,235,0.0,0.0,90,0.00,,,0.01,Wunderground v.1.15,2013-06-16 01:40:00,
2013-06-15 21:45:00,62.3,59.3,30.07,SW,235,0.0,0.0,90,0.00,,,0.01,Wunderground v.1.15,2013-06-16 01:45:00,
2013-06-15 21:50:00,62.0,59.0,30.08,SW,236,0.0,0.0,90,0.00,,,0.01,Wunderground v.1.15,2013-06-16 01:50:00,
2013-06-15 22:00:00,61.5,58.5,30.08,SW,236,0.0,0.0,90,0.00,,,0.01,Wunderground v.1.15,2013-06-16 02:00:00,
2013-06-15 22:05:00,61.3,58.3,30.08,SW,236,0.0,0.0,90,0.00,,,0.01,Wunderground v.1.15,2013-06-16 02:05:00,
2013-06-15 22:10:00,61.1,58.1,30.08,SW,236,0.0,0.0,90,0.00,,,0.01,Wunderground v.1.15,2013-06-16 02:10:00,
2013-06-15 22:15:00,60.9,57.9,30.09,SW,236,0.0,0.0,90,0.00,,,0.01,Wunderground v.1.15,2013-06-16 02:15:00,
2013-06-15 22:25:00,60.6,58.0,30.09,SW,236,0.0,0.0,91,0.00,,,0.01,Wunderground v.1.15,2013-06-16 02:25:00,
2013-06-15 22:30:00,60.4,57.8,30.09,SW,236,0.0,0.0,91,0.00,,,0.01,Wunderground v.1.15,2013-06-16 02:30:00,
2013-06-15 22:40:00,60.1,57.5,30.10,SW,236,0.0,0.0,91,0.00,,,0.01,Wunderground v.1.15,2013-06-16 02:40:00,
2013-06-15 22:50:00,59.8,57.2,30.10,SW,236,0.0,0.0,91,0.00,,,0.01,Wunderground v.1.15,2013-06-16 02:50:00,
2013-06-15 22:55:00,59.7,57.4,30.10,SW,236,0.0,0.0,92,0.00,,,0.01,Wunderground v.1.15,2013-06-16 02:55:00,
2013-06-15 23:00:00,59.6,57.3,30.10,SW,236,0.0,0.0,92,0.00,,,0.01,Wunderground v.1.15,2013-06-16 03:00:00,
2013-06-15 23:10:00,59.3,57.0,30.11,SW,236,0.0,0.0,92,0.00,,,0.01,Wunderground v.1.15,2013-06-16 03:10:00,
2013-06-15 23:15:00,59.2,56.9,30.11,SW,236,0.0,0.0,92,0.00,,,0.01,Wunderground v.1.15,2013-06-16 03:15:00,
2013-06-15 23:20:00,59.1,56.8,30.10,SW,235,0.0,0.0,92,0.00,,,0.01,Wunderground v.1.15,2013-06-16 03:20:00,
2013-06-15 23:25:00,58.9,56.6,30.10,SW,236,0.0,0.0,92,0.00,,,0.01,Wunderground v.1.15,2013-06-16 03:25:00,
2013-06-15 23:30:00,58.8,56.5,30.10,SW,236,0.0,0.0,92,0.00,,,0.01,Wunderground v.1.15,2013-06-16 03:30:00,
2013-06-15 23:40:00,58.6,56.3,30.10,SW,235,0.0,0.0,92,0.00,,,0.01,Wunderground v.1.15,2013-06-16 03:40:00,
2013-06-15 23:45:00,58.5,56.2,30.11,SW,236,0.0,0.0,92,0.00,,,0.01,Wunderground v.1.15,2013-06-16 03:45:00,
2013-06-15 23:50:00,58.4,56.4,30.10,SW,236,0.0,0.0,93,0.00,,,0.01,Wunderground v.1.15,2013-06-16 03:50:00,
2013-06-15 23:55:00,58.3,56.3,30.10,SW,236,0.0,0.0,93,0.00,,,0.01,Wunderground v.1.15,2013-06-16 03:55:00,